Hauptseite
METAR-TAF:

METAR-TAF

Flughäfen :

Lugano, Schweiz

Flughafen Lugano-Agno

Breite: 46-00N, Länge: 008-58E, Höhe: 273 m

Beobachtung

Neuester Wetterbericht von vor 18 Minuten, um 19:20 UTC
Wind 1 kt aus unterschiedlichen Richtungen
Temperatur 4°C
Luftfeuchtigkeit 81%
Luftdruck 1014 hPa
Sichtweite 10 km oder mehr
Leicht bewölkt in der Höhe von 11000 ft

METAR: LSZA 221920Z VRB01KT 9999 FEW110 04/01 Q1014 NOSIG

Zeit: 20:38 (19:38 UTC)

Prognose

Neuester Wetterbericht von vor 5 Stunden und 13 Minuten, um 14:25 UTC
Gültige Prognose vom 22 um 15 UTC bis 22 um 24 UTC
Wind 3 kt aus unterschiedlichen Richtungen
Sichtweite 10 km oder mehr
Aufgelockert bewölkt in der Höhe von 6000 ft

TAF: LSZA 221425Z 2215/2224 VRB03KT 9999 SCT060

Wetterbeobachtungen und Prognosen von mehr als 4000 Flughäfen (METAR und TAF Bericht).

Die verfügbaren Stationen werden durch gelbe und rote Markierungen auf der Karte dargestellt.

Führen Sie die Maus auf sie, um den Namen der Station zu sehen.

Darauf klicken, um die Beobachtung von Wetterbeobachtungen und Prognosen zu sehen.

Um die Karte zu ändern : klicken Sie auf den grünen Tasten mit einem schwarzen Kreuz Zum Vergrößern, auf den grünen Button mit einem Gedankenstrich zu verkleinern, oder auf die grünen Pfeile für benachbarte Karten.


METAR-TAF: